createdAt,value
2023-02-21T10:55:31.737Z,101937.09
2023-02-21T11:00:39.503Z,101926.88
2023-02-21T11:05:50.456Z,101924.13
2023-02-21T11:10:57.379Z,101932.88
2023-02-21T11:16:12.374Z,101930.88
2023-02-21T11:21:19.044Z,101927.31
2023-02-21T11:26:24.724Z,101926.78
2023-02-21T11:31:31.293Z,101905.88
2023-02-21T11:36:38.255Z,101910.09
2023-02-21T11:41:50.439Z,101900.22
2023-02-21T11:47:08.817Z,101892.78
2023-02-21T11:52:17.117Z,101895.88
2023-02-21T11:57:33.205Z,101883.47
2023-02-21T12:03:22.595Z,101871.97
2023-02-21T12:08:49.117Z,101876.84
2023-02-21T12:14:15.511Z,101868.53
2023-02-21T12:19:45.877Z,101862.59
2023-02-21T12:25:13.987Z,101869.38
2023-02-21T12:30:53.341Z,101855.06
2023-02-21T12:36:20.468Z,101859.28
2023-02-21T12:41:54.777Z,101859.41
2023-02-21T12:47:05.510Z,101854.34
2023-02-21T12:52:17.940Z,101843.97
2023-02-21T12:57:32.005Z,101834.88
2023-02-21T13:02:44.838Z,101833.25
2023-02-21T13:07:58.977Z,101832.50
2023-02-21T13:13:09.726Z,101822.22
2023-02-21T13:18:21.539Z,101825.16
2023-02-21T13:24:21.851Z,101820.97
2023-02-21T13:29:42.226Z,101823.47
2023-02-21T13:34:54.703Z,101815.28
2023-02-21T13:40:07.754Z,101809.88
2023-02-21T13:45:22.056Z,101803.34
2023-02-21T13:50:50.691Z,101793.19
2023-02-21T13:56:19.026Z,101805.75
2023-02-21T14:01:46.815Z,101803.88
2023-02-21T14:06:58.388Z,101790.50
2023-02-21T14:12:05.209Z,101797.00
2023-02-21T14:17:12.094Z,101795.25
2023-02-21T14:22:27.494Z,101794.94
2023-02-21T14:27:37.533Z,101782.47
2023-02-21T14:32:45.652Z,101782.00
2023-02-21T14:37:59.802Z,101774.47
2023-02-21T14:43:32.725Z,101752.28
2023-02-21T14:49:22.872Z,101768.28
2023-02-21T14:55:29.602Z,101765.88
2023-02-21T15:00:48.442Z,101764.34
2023-02-21T15:06:04.410Z,101748.34
2023-02-21T15:11:26.704Z,101746.50
2023-02-21T15:16:33.877Z,101748.56
2023-02-21T15:21:38.260Z,101750.41
2023-02-21T15:26:44.029Z,101746.47
2023-02-21T15:31:52.667Z,101748.94
2023-02-21T15:37:05.005Z,101759.88
2023-02-21T15:42:11.681Z,101755.75
2023-02-21T15:47:21.443Z,101748.53
2023-02-21T15:52:39.071Z,101751.00
2023-02-21T15:57:45.933Z,101748.22
2023-02-21T16:02:50.190Z,101751.81
2023-02-21T16:07:55.305Z,101743.34
2023-02-21T16:13:02.578Z,101749.97
2023-02-21T16:18:08.561Z,101745.81
2023-02-21T16:23:26.455Z,101739.72
2023-02-21T16:28:32.634Z,101732.53
2023-02-21T16:33:37.732Z,101741.66
2023-02-21T16:38:41.774Z,101732.75
2023-02-21T16:43:48.129Z,101734.19
2023-02-21T16:48:54.674Z,101727.88
2023-02-21T16:53:58.698Z,101722.31
2023-02-21T16:59:05.047Z,101735.94
2023-02-21T17:04:17.329Z,101712.78
2023-02-21T17:09:25.327Z,101722.69
2023-02-21T17:14:30.776Z,101724.44
2023-02-21T17:19:34.754Z,101718.53
2023-02-21T17:24:38.796Z,101723.50
2023-02-21T17:29:44.206Z,101727.81
2023-02-21T17:34:48.238Z,101726.50
2023-02-21T17:39:54.660Z,101738.31
2023-02-21T17:45:02.240Z,101725.03
2023-02-21T17:50:07.644Z,101724.63
2023-02-21T17:55:19.578Z,101727.22
2023-02-21T18:00:28.345Z,101728.06
2023-02-21T18:05:33.188Z,101722.78
2023-02-21T18:10:37.383Z,101724.22
2023-02-21T18:15:42.845Z,101728.06
2023-02-21T18:20:47.064Z,101724.09
2023-02-21T18:25:51.146Z,101718.06
2023-02-21T18:30:56.673Z,101708.94
2023-02-21T18:36:01.013Z,101706.34
2023-02-21T18:41:05.472Z,101706.97
2023-02-21T18:46:14.533Z,101703.66
2023-02-21T18:51:20.962Z,101698.47
2023-02-21T18:56:25.056Z,101681.09
2023-02-21T19:01:30.533Z,101681.72
2023-02-21T19:06:34.627Z,101686.88
2023-02-21T19:11:38.916Z,101670.53
2023-02-21T19:16:44.426Z,101662.06
2023-02-21T19:21:48.617Z,101667.56
2023-02-21T19:26:52.869Z,101663.28
2023-02-21T19:31:58.729Z,101660.28
2023-02-21T19:37:02.923Z,101654.44
2023-02-21T19:42:07.512Z,101663.59
2023-02-21T19:47:13.432Z,101658.97
2023-02-21T19:52:17.744Z,101645.75
2023-02-21T19:57:21.857Z,101646.28
2023-02-21T20:02:27.442Z,101651.22
2023-02-21T20:07:31.451Z,101657.22
2023-02-21T20:12:35.578Z,101672.75
2023-02-21T20:17:41.019Z,101659.91
2023-02-21T20:22:45.068Z,101659.69
2023-02-21T20:27:49.150Z,101653.47
2023-02-21T20:32:54.567Z,101656.00
2023-02-21T20:38:02.103Z,101651.47
2023-02-21T20:43:06.329Z,101646.50
2023-02-21T20:48:13.127Z,101645.75
2023-02-21T20:53:17.712Z,101643.88
2023-02-21T20:58:22.428Z,101631.75
2023-02-21T21:03:29.605Z,101642.13
2023-02-21T21:08:33.699Z,101633.38
2023-02-21T21:13:37.706Z,101632.06
2023-02-21T21:18:43.264Z,101624.66
2023-02-21T21:23:47.260Z,101628.56
2023-02-21T21:28:52.080Z,101613.41
2023-02-21T21:33:58.437Z,101605.41
2023-02-21T21:39:02.449Z,101603.44
2023-02-21T21:44:07.992Z,101600.09
2023-02-21T21:49:16.229Z,101592.44
2023-02-21T21:54:21.707Z,101587.16
2023-02-21T21:59:27.269Z,101585.88
2023-02-21T22:04:32.841Z,101574.69
2023-02-21T22:09:37.314Z,101572.41
2023-02-21T22:14:41.308Z,101564.06
2023-02-21T22:19:47.742Z,101546.91
2023-02-21T22:24:51.913Z,101560.13
2023-02-21T22:29:57.764Z,101556.66
2023-02-21T22:35:03.342Z,101537.84
2023-02-21T22:40:09.496Z,101524.44
2023-02-21T22:45:13.568Z,101513.28
2023-02-21T22:50:20.614Z,101503.66
2023-02-21T22:55:26.352Z,101509.56
2023-02-21T23:00:33.037Z,101501.97
2023-02-21T23:05:39.330Z,101502.06
2023-02-21T23:10:43.873Z,101497.41
2023-02-21T23:15:48.635Z,101496.81
2023-02-21T23:20:58.227Z,101504.25
2023-02-21T23:26:02.316Z,101499.56
2023-02-21T23:31:06.544Z,101501.25
2023-02-21T23:36:12.400Z,101489.91
2023-02-21T23:41:16.862Z,101501.66
2023-02-21T23:46:25.319Z,101506.41
2023-02-21T23:51:30.676Z,101498.72
2023-02-21T23:56:35.511Z,101493.09
